Time;durP1;ratioP1;P1;durP2;ratioP2;P2;SDS_P1;SDS_P2;PMS_P1;PMS_P2;Temp;Humidity;BMP_temperature;BMP_pressure;BME280_temperature;BME280_humidity;BME280_pressure;Samples;Min_cycle;Max_cycle;Signal;HPM_P1;HPM_P2
2023/06/03 00:02:13;;;;;;;5.20;1.35;;;;;;;14.88;45.24;100466.09;5031515;28;20469;-78
2023/06/03 00:04:42;;;;;;;2.38;1.30;;;;;;;14.84;45.12;100470.75;5031491;28;20045;-78
2023/06/03 00:07:09;;;;;;;2.10;1.48;;;;;;;14.79;45.30;100470.16;5031552;28;20089;-77
2023/06/03 00:09:36;;;;;;;3.03;1.40;;;;;;;14.73;45.30;100469.59;5031317;28;20050;-77
2023/06/03 00:12:03;;;;;;;2.92;1.42;;;;;;;14.70;45.24;100472.41;5030403;28;20135;-77
2023/06/03 00:14:29;;;;;;;4.00;1.23;;;;;;;14.67;45.40;100471.78;5031170;28;20084;-78
2023/06/03 00:16:56;;;;;;;2.55;1.10;;;;;;;14.65;45.42;100473.69;5031119;28;20060;-77
2023/06/03 00:19:23;;;;;;;2.22;1.58;;;;;;;14.61;45.28;100467.69;5029959;28;20134;-77
2023/06/03 00:21:49;;;;;;;2.58;1.25;;;;;;;14.59;45.45;100481.03;5029764;28;20052;-78
2023/06/03 00:24:22;;;;;;;3.92;1.25;;;;;;;14.55;45.42;100486.66;5031017;28;20434;-77
2023/06/03 00:26:52;;;;;;;3.05;1.10;;;;;;;14.53;45.65;100483.22;5030973;28;20060;-77
2023/06/03 00:29:19;;;;;;;4.07;1.10;;;;;;;14.51;45.42;100485.13;5031183;28;20084;-77
2023/06/03 00:31:47;;;;;;;3.65;1.42;;;;;;;14.46;45.66;100483.63;5030092;28;20406;-76
2023/06/03 00:34:13;;;;;;;2.17;0.90;;;;;;;14.44;45.50;100490.78;5030787;28;20537;-77
2023/06/03 00:36:40;;;;;;;3.15;1.15;;;;;;;14.40;45.49;100486.66;5029412;28;20080;-78
2023/06/03 00:39:07;;;;;;;2.47;1.23;;;;;;;14.39;45.48;100492.88;5029879;28;20053;-77
2023/06/03 00:41:35;;;;;;;2.47;1.10;;;;;;;14.37;45.61;100488.63;5030152;28;20154;-77
2023/06/03 00:44:01;;;;;;;2.25;1.25;;;;;;;14.36;45.70;100486.94;5029698;28;20445;-77
2023/06/03 00:46:32;;;;;;;2.17;1.27;;;;;;;14.35;45.63;100490.53;5030649;28;20087;-77
2023/06/03 00:48:59;;;;;;;6.40;1.40;;;;;;;14.34;45.64;100484.38;5029597;28;20457;-77
2023/06/03 00:51:26;;;;;;;2.15;1.13;;;;;;;14.33;45.90;100482.66;5031139;28;20048;-77
2023/06/03 00:53:53;;;;;;;3.70;1.10;;;;;;;14.32;45.57;100487.09;5030563;28;20426;-77
2023/06/03 00:56:19;;;;;;;2.70;0.90;;;;;;;14.32;45.51;100491.56;5030118;28;20485;-78
2023/06/03 00:58:46;;;;;;;1.67;1.23;;;;;;;14.30;45.72;100489.00;5029179;28;20084;-77
2023/06/03 01:01:13;;;;;;;4.28;1.17;;;;;;;14.27;45.61;100489.19;5030884;28;20056;-77
2023/06/03 01:03:42;;;;;;;4.95;1.00;;;;;;;14.25;45.90;100485.78;5030315;28;20119;-78
2023/06/03 01:06:27;;;;;;;2.92;1.30;;;;;;;14.17;45.88;100480.94;5030381;28;20053;-77
2023/06/03 01:09:06;;;;;;;2.45;1.23;;;;;;;14.18;45.49;100484.44;5029343;28;20049;-78
2023/06/03 01:11:40;;;;;;;1.73;1.20;;;;;;;14.13;45.77;100483.88;5030703;28;20045;-77
2023/06/03 01:14:22;;;;;;;1.88;1.30;;;;;;;14.03;46.11;100486.22;5030293;28;20049;-76
2023/06/03 01:16:50;;;;;;;3.58;1.27;;;;;;;14.03;45.87;100480.94;5030177;28;20089;-78
2023/06/03 01:19:50;;;;;;;4.40;1.08;;;;;;;13.93;46.10;100484.13;5030410;28;20482;-77
2023/06/03 01:22:20;;;;;;;3.08;1.30;;;;;;;13.91;45.92;100480.72;5030661;28;20478;-77
2023/06/03 01:24:50;;;;;;;2.63;1.10;;;;;;;13.86;45.73;100480.13;5030587;28;20045;-77
2023/06/03 01:27:18;;;;;;;1.55;1.30;;;;;;;13.83;46.00;100479.47;5009441;28;20077;-76
2023/06/03 01:29:45;;;;;;;2.03;1.00;;;;;;;13.80;45.86;100485.81;5010610;28;20145;-77
2023/06/03 01:32:16;;;;;;;4.57;1.33;;;;;;;13.72;46.06;100485.41;5010637;28;20054;-77
2023/06/03 01:34:44;;;;;;;2.97;1.27;;;;;;;13.68;45.89;100485.56;5009181;28;20100;-77
2023/06/03 01:37:11;;;;;;;1.92;0.95;;;;;;;13.64;45.95;100480.56;5026873;28;20049;-77
2023/06/03 01:39:40;;;;;;;3.35;1.23;;;;;;;13.60;45.86;100474.59;5028937;28;20095;-77
2023/06/03 01:42:11;;;;;;;3.13;1.17;;;;;;;13.55;46.11;100480.16;5030382;28;20055;-77
2023/06/03 01:44:38;;;;;;;3.88;1.15;;;;;;;13.53;46.16;100479.38;5028716;28;20108;-77
2023/06/03 01:47:05;;;;;;;1.67;1.08;;;;;;;13.48;46.40;100475.28;5029929;28;20049;-77
2023/06/03 01:49:32;;;;;;;2.25;1.13;;;;;;;13.45;46.17;100478.09;5030058;28;20136;-77
2023/06/03 01:51:59;;;;;;;1.63;1.05;;;;;;;13.38;46.34;100470.50;5030510;28;20056;-77
2023/06/03 01:54:27;;;;;;;3.20;1.30;;;;;;;13.36;46.30;100471.53;5033969;28;20056;-77
2023/06/03 01:56:55;;;;;;;3.33;1.15;;;;;;;13.31;46.16;100478.88;5033710;28;20045;-76
2023/06/03 01:59:23;;;;;;;2.33;1.10;;;;;;;13.25;46.53;100477.44;5034144;28;20085;-77
2023/06/03 02:01:53;;;;;;;3.25;1.25;;;;;;;13.20;46.65;100471.56;5033739;28;20061;-77
2023/06/03 02:04:21;;;;;;;4.53;0.90;;;;;;;13.18;46.46;100478.72;5033661;28;20494;-77
2023/06/03 02:06:50;;;;;;;2.90;0.90;;;;;;;13.13;46.85;100479.81;5033480;28;20556;-77
2023/06/03 02:09:27;;;;;;;1.45;1.00;;;;;;;13.07;46.85;100482.81;5033841;28;20053;-77
2023/06/03 02:11:55;;;;;;;2.17;1.08;;;;;;;13.07;46.70;100479.31;5033625;28;20490;-77
2023/06/03 02:14:22;;;;;;;2.50;1.20;;;;;;;13.04;46.66;100477.69;5032366;28;20087;-78
2023/06/03 02:16:49;;;;;;;1.90;1.10;;;;;;;13.01;46.88;100480.53;5032775;28;20045;-76
2023/06/03 02:19:17;;;;;;;3.22;1.33;;;;;;;12.97;46.61;100476.34;5033609;28;20130;-77
2023/06/03 02:21:44;;;;;;;2.53;1.17;;;;;;;12.95;46.83;100479.09;5033569;28;20445;-77
2023/06/03 02:24:14;;;;;;;2.22;1.20;;;;;;;12.93;46.65;100474.81;5033448;28;20081;-77
2023/06/03 02:26:52;;;;;;;1.67;1.05;;;;;;;12.89;46.74;100469.69;5033254;28;20053;-78
2023/06/03 02:29:25;;;;;;;3.00;1.20;;;;;;;12.86;47.10;100475.16;5032384;28;20060;-76
2023/06/03 02:31:57;;;;;;;1.77;1.00;;;;;;;12.83;46.69;100469.19;5033603;28;20045;-77
2023/06/03 02:34:23;;;;;;;4.07;1.45;;;;;;;12.81;46.75;100471.91;5033134;28;20045;-76
2023/06/03 02:36:52;;;;;;;4.72;1.20;;;;;;;12.79;46.92;100473.78;5033217;28;20052;-77
2023/06/03 02:39:19;;;;;;;3.92;1.55;;;;;;;12.78;46.80;100477.34;5033109;28;20057;-77
2023/06/03 02:41:46;;;;;;;2.13;1.20;;;;;;;12.74;47.14;100481.97;5033223;28;20049;-77
2023/06/03 02:44:13;;;;;;;5.88;1.10;;;;;;;12.73;46.96;100484.69;5032913;28;20077;-77
2023/06/03 02:46:40;;;;;;;1.92;1.02;;;;;;;12.71;47.30;100481.28;5033041;28;20049;-77
2023/06/03 02:49:08;;;;;;;2.83;1.20;;;;;;;12.69;47.17;100488.44;5032933;28;20148;-78
2023/06/03 02:51:36;;;;;;;3.08;1.05;;;;;;;12.67;47.22;100495.59;5033106;28;20061;-77
2023/06/03 02:54:03;;;;;;;3.17;1.10;;;;;;;12.62;47.09;100494.06;5032430;28;20762;-77
2023/06/03 02:56:30;;;;;;;0.93;0.93;;;;;;;12.59;47.45;100496.84;5033420;28;20107;-78
2023/06/03 02:58:56;;;;;;;4.72;1.30;;;;;;;12.56;47.37;100498.81;5033010;28;20057;-77
2023/06/03 03:01:23;;;;;;;1.95;1.10;;;;;;;12.53;47.39;100498.97;5032900;28;20049;-77
2023/06/03 03:03:50;;;;;;;3.47;1.27;;;;;;;12.51;47.28;100493.75;5031998;28;20053;-77
2023/06/03 03:06:19;;;;;;;3.42;1.30;;;;;;;12.48;47.24;100501.84;5032224;28;20046;-77
2023/06/03 03:08:50;;;;;;;2.05;1.20;;;;;;;12.43;47.78;100502.09;5031260;28;20084;-77
2023/06/03 03:11:17;;;;;;;2.28;1.05;;;;;;;12.41;47.57;100500.47;5032729;28;20042;-77
2023/06/03 03:13:45;;;;;;;3.90;1.73;;;;;;;12.38;47.44;100498.84;5032870;28;20096;-77
2023/06/03 03:16:12;;;;;;;3.85;1.13;;;;;;;12.34;47.46;100500.78;5031982;28;20483;-77
2023/06/03 03:21:15;;;;;;;2.85;1.20;;;;;;;12.28;47.58;100495.84;4971523;28;20138;-80
2023/06/03 03:23:42;;;;;;;5.30;1.17;;;;;;;12.26;47.45;100492.41;4973712;28;20043;-79
2023/06/03 03:26:08;;;;;;;3.22;1.33;;;;;;;12.23;47.51;100497.88;4955973;28;20564;-80
2023/06/03 03:28:36;;;;;;;1.88;1.20;;;;;;;12.21;47.50;100499.72;4956218;28;20047;-79
2023/06/03 03:31:04;;;;;;;2.03;1.05;;;;;;;12.19;47.65;100506.88;4956231;28;20492;-79
2023/06/03 03:33:31;;;;;;;1.40;1.20;;;;;;;12.19;47.62;100506.88;4973712;28;20504;-79
2023/06/03 03:36:08;;;;;;;2.75;1.20;;;;;;;12.15;47.49;100506.16;4973034;28;20050;-80
2023/06/03 03:38:36;;;;;;;7.25;1.17;;;;;;;12.15;47.43;100508.81;4955886;28;20047;-80
2023/06/03 03:41:04;;;;;;;1.83;1.10;;;;;;;12.14;47.67;100508.91;4972965;28;20510;-80
2023/06/03 03:43:31;;;;;;;2.10;1.20;;;;;;;12.12;47.63;100501.91;4987853;28;20053;-80
2023/06/03 03:45:58;;;;;;;2.10;0.90;;;;;;;12.12;47.55;100495.78;4972798;28;20047;-79
2023/06/03 03:48:28;;;;;;;2.25;1.38;;;;;;;12.10;47.82;100495.88;4972873;28;20078;-80
2023/06/03 03:50:55;;;;;;;2.05;1.20;;;;;;;12.10;47.69;100509.06;4956047;28;20047;-80
2023/06/03 03:53:28;;;;;;;3.45;1.20;;;;;;;12.09;48.16;100502.09;4973182;28;20050;-80
2023/06/03 03:55:57;;;;;;;1.77;1.00;;;;;;;12.09;47.68;100504.72;4972974;28;20061;-79
2023/06/03 03:58:46;;;;;;;2.72;1.17;;;;;;;12.04;48.05;100504.03;4955571;28;20046;-79
2023/06/03 04:01:17;;;;;;;2.22;1.30;;;;;;;12.07;47.72;100503.09;4972951;28;20105;-80
2023/06/03 04:03:46;;;;;;;2.17;1.10;;;;;;;12.05;47.72;100502.28;4972908;28;20053;-79
2023/06/03 04:06:23;;;;;;;3.78;1.10;;;;;;;12.04;47.75;100503.22;4973053;28;20526;-80
2023/06/03 04:08:52;;;;;;;3.60;1.50;;;;;;;12.03;47.81;100507.63;4953369;29;20051;-80
2023/06/03 04:11:27;;;;;;;3.05;1.00;;;;;;;12.02;47.88;100508.56;4953608;29;20051;-80
2023/06/03 04:13:56;;;;;;;3.10;1.38;;;;;;;12.03;48.02;100506.78;4953635;29;20095;-80
2023/06/03 04:16:22;;;;;;;1.45;1.13;;;;;;;12.03;47.90;100498.88;4953340;28;20055;-80
2023/06/03 04:18:49;;;;;;;3.58;1.40;;;;;;;12.03;47.73;100506.78;4970604;28;20468;-80
2023/06/03 04:21:19;;;;;;;2.90;1.30;;;;;;;12.03;48.13;100514.72;4972581;28;20049;-79
2023/06/03 04:23:46;;;;;;;2.47;1.35;;;;;;;12.05;47.89;100519.00;4972648;28;20129;-80
2023/06/03 04:26:17;;;;;;;1.85;0.93;;;;;;;12.06;47.99;100520.69;4955076;28;20093;-79
2023/06/03 04:28:43;;;;;;;3.53;1.27;;;;;;;12.09;47.92;100520.56;4972530;28;20047;-80
2023/06/03 04:31:13;;;;;;;4.70;1.30;;;;;;;12.11;48.05;100525.72;4972765;28;20086;-80
2023/06/03 04:33:42;;;;;;;2.22;1.20;;;;;;;12.14;47.89;100524.75;4987898;28;20377;-80
2023/06/03 04:36:09;;;;;;;3.50;1.35;;;;;;;12.17;47.82;100525.44;4972546;28;20062;-80
2023/06/03 04:38:35;;;;;;;2.33;1.08;;;;;;;12.19;48.04;100528.00;4972155;28;20423;-80
2023/06/03 04:41:05;;;;;;;1.83;1.13;;;;;;;12.22;48.34;100530.44;4972412;28;20082;-79
2023/06/03 04:43:33;;;;;;;2.60;1.20;;;;;;;12.25;48.09;100528.53;4972378;28;20141;-80
2023/06/03 04:46:00;;;;;;;2.53;1.25;;;;;;;12.29;48.20;100523.09;4972493;28;20054;-80
2023/06/03 04:48:30;;;;;;;3.45;1.40;;;;;;;12.30;48.18;100524.81;4972373;28;20047;-80
2023/06/03 04:51:00;;;;;;;2.58;1.33;;;;;;;12.33;48.03;100524.63;4955058;28;20265;-80
2023/06/03 04:53:29;;;;;;;2.05;1.38;;;;;;;12.36;47.99;100533.25;4972295;28;20054;-79
2023/06/03 04:55:55;;;;;;;2.47;1.30;;;;;;;12.40;48.37;100528.66;4972258;28;20469;-80
2023/06/03 04:58:24;;;;;;;2.75;1.27;;;;;;;12.45;48.13;100533.72;4971936;28;20052;-80
2023/06/03 05:00:51;;;;;;;3.88;1.40;;;;;;;12.51;48.02;100536.00;4971700;28;20154;-79
2023/06/03 05:03:18;;;;;;;2.90;1.85;;;;;;;12.56;48.02;100538.44;4972092;28;20082;-80
2023/06/03 05:05:44;;;;;;;3.40;1.27;;;;;;;12.61;48.16;100537.25;4954665;28;20059;-80
2023/06/03 05:08:12;;;;;;;2.92;1.10;;;;;;;12.65;48.17;100537.94;4954600;28;20684;-80
2023/06/03 05:10:38;;;;;;;2.75;1.20;;;;;;;12.69;48.15;100533.31;4972096;28;20059;-80
2023/06/03 05:13:08;;;;;;;1.88;1.00;;;;;;;12.74;48.24;100534.78;4986848;28;20514;-79
2023/06/03 05:15:35;;;;;;;6.45;1.77;;;;;;;12.79;48.02;100533.69;4971876;28;20137;-80
2023/06/03 05:18:02;;;;;;;3.78;1.10;;;;;;;12.85;48.06;100530.72;4971233;28;20118;-80
2023/06/03 05:20:31;;;;;;;1.42;0.85;;;;;;;12.89;48.27;100526.97;4971608;28;20051;-79
2023/06/03 05:22:58;;;;;;;2.42;1.05;;;;;;;12.96;47.96;100524.84;4972034;28;20139;-80
2023/06/03 05:25:25;;;;;;;4.70;1.23;;;;;;;13.01;48.08;100534.22;4971920;28;20133;-80
2023/06/03 05:27:52;;;;;;;4.18;1.27;;;;;;;13.07;47.87;100534.81;4973082;28;20050;-79
2023/06/03 05:30:28;;;;;;;2.05;1.20;;;;;;;13.13;47.71;100529.22;4960125;28;20062;-79
2023/06/03 05:32:55;;;;;;;1.88;1.10;;;;;;;13.19;47.63;100533.31;4976095;28;20539;-80
2023/06/03 05:35:21;;;;;;;3.90;1.08;;;;;;;13.24;47.58;100525.97;4975736;28;20113;-79
2023/06/03 05:37:48;;;;;;;3.65;1.13;;;;;;;13.31;47.69;100531.78;4975711;28;20605;-80
2023/06/03 05:40:15;;;;;;;3.78;1.20;;;;;;;13.37;47.74;100531.41;4975411;28;20046;-80
2023/06/03 05:42:41;;;;;;;3.63;1.08;;;;;;;13.43;47.64;100529.28;4975586;28;20412;-80
2023/06/03 05:45:08;;;;;;;1.33;1.02;;;;;;;13.50;47.45;100526.31;4975437;28;20597;-80
2023/06/03 05:47:35;;;;;;;1.35;1.17;;;;;;;13.57;47.52;100526.81;4975839;28;20137;-80
2023/06/03 05:50:02;;;;;;;2.90;1.45;;;;;;;13.61;47.43;100531.84;4974943;28;20050;-80
2023/06/03 05:52:28;;;;;;;1.73;1.15;;;;;;;13.66;47.43;100524.50;4975242;28;20528;-80
2023/06/03 05:54:55;;;;;;;2.72;1.40;;;;;;;13.74;47.30;100528.50;4975693;28;20141;-80
2023/06/03 05:57:23;;;;;;;2.53;1.00;;;;;;;13.79;47.12;100535.22;4974886;28;20062;-80
2023/06/03 05:59:51;;;;;;;3.67;1.20;;;;;;;13.86;47.25;100541.00;4957880;28;20051;-80
2023/06/03 06:02:21;;;;;;;1.35;1.10;;;;;;;13.91;47.39;100541.59;4975470;28;20050;-80
2023/06/03 06:04:48;;;;;;;3.53;1.42;;;;;;;13.98;47.05;100531.50;4957727;28;20054;-79
2023/06/03 06:07:15;;;;;;;7.70;1.30;;;;;;;14.05;47.01;100531.97;4974916;28;20051;-80
2023/06/03 06:09:42;;;;;;;3.90;1.20;;;;;;;14.12;47.05;100535.09;4974828;28;20453;-79
2023/06/03 06:12:09;;;;;;;3.30;1.10;;;;;;;14.20;46.87;100543.44;4974863;28;20057;-80
2023/06/03 06:14:35;;;;;;;1.83;1.05;;;;;;;14.26;46.55;100534.28;4975099;28;20050;-79
2023/06/03 06:17:02;;;;;;;3.15;1.10;;;;;;;14.32;46.89;100536.59;4957715;28;20054;-80
2023/06/03 06:19:28;;;;;;;2.40;1.02;;;;;;;14.38;46.54;100533.56;4974300;28;20566;-80
2023/06/03 06:21:55;;;;;;;2.95;1.10;;;;;;;14.46;46.30;100539.25;4974948;28;20137;-79
2023/06/03 06:24:23;;;;;;;3.13;1.17;;;;;;;14.51;46.30;100543.41;4974548;28;20133;-79
2023/06/03 06:26:50;;;;;;;4.25;1.20;;;;;;;14.57;46.15;100546.53;4974260;28;20402;-79
2023/06/03 06:29:17;;;;;;;2.65;1.10;;;;;;;14.65;46.27;100542.56;4974449;28;20050;-79
2023/06/03 06:31:44;;;;;;;5.68;1.30;;;;;;;14.71;46.00;100545.69;4989442;28;20557;-79
2023/06/03 06:34:16;;;;;;;3.75;1.10;;;;;;;14.78;45.60;100550.63;4974471;28;20527;-78
2023/06/03 06:36:49;;;;;;;0.73;0.73;;;;;;;14.85;45.62;100549.31;4957201;28;20098;-79
2023/06/03 06:39:34;;;;;;;0.82;0.80;;;;;;;14.90;45.54;100549.88;4972825;28;20415;-79
2023/06/03 06:42:14;;;;;;;2.65;1.25;;;;;;;14.98;45.36;100555.53;4957181;28;20581;-79
2023/06/03 06:44:50;;;;;;;2.42;1.20;;;;;;;15.07;45.28;100551.44;4974195;28;20574;-79
2023/06/03 06:47:22;;;;;;;3.70;1.35;;;;;;;15.16;45.13;100554.47;4957130;28;20769;-79
2023/06/03 06:49:54;;;;;;;3.90;1.10;;;;;;;15.24;45.16;100554.84;4974039;28;20110;-79
2023/06/03 06:52:25;;;;;;;2.05;0.98;;;;;;;15.30;45.07;100558.91;4988971;28;20415;-79
2023/06/03 06:54:55;;;;;;;6.72;1.00;;;;;;;15.33;44.47;100556.06;4989158;28;20138;-78
2023/06/03 06:57:23;;;;;;;2.97;0.90;;;;;;;15.40;44.56;100551.19;4974016;28;20150;-79
2023/06/03 06:59:53;;;;;;;2.25;1.05;;;;;;;15.45;44.38;100547.31;4973608;28;20054;-79
2023/06/03 07:02:21;;;;;;;2.20;0.93;;;;;;;15.51;44.17;100556.66;4973452;28;20047;-79
2023/06/03 07:04:51;;;;;;;3.17;1.15;;;;;;;15.57;43.84;100555.41;4973738;28;20057;-79
2023/06/03 07:07:18;;;;;;;2.75;0.85;;;;;;;15.63;44.22;100552.38;4973759;28;20488;-80
2023/06/03 07:09:44;;;;;;;5.53;1.00;;;;;;;15.71;44.18;100547.41;4973994;28;20046;-79
2023/06/03 07:12:11;;;;;;;2.80;0.88;;;;;;;15.79;44.03;100546.03;4956483;28;20055;-80
2023/06/03 07:14:37;;;;;;;2.00;1.02;;;;;;;15.86;44.26;100542.84;4973768;28;20081;-80
2023/06/03 07:17:05;;;;;;;2.55;0.95;;;;;;;15.94;43.86;100547.69;4973492;28;20058;-79
2023/06/03 07:19:38;;;;;;;2.33;1.00;;;;;;;16.02;43.73;100549.81;4956630;28;20047;-79
2023/06/03 07:22:05;;;;;;;;;;;;;;;16.11;44.19;100537.75;4973862;28;20054;-80
2023/06/03 07:24:36;;;;;;;3.08;0.80;;;;;;;16.24;43.70;100546.59;4973503;28;19932;-80
2023/06/03 07:27:07;;;;;;;6.03;1.08;;;;;;;16.31;43.43;100541.69;4956269;28;20416;-80
2023/06/03 07:29:38;;;;;;;2.15;0.90;;;;;;;16.38;43.64;100539.47;4973523;28;20072;-80
2023/06/03 07:32:08;;;;;;;3.47;0.85;;;;;;;16.46;42.96;100545.09;4973635;28;20097;-80
2023/06/03 07:34:36;;;;;;;3.33;0.93;;;;;;;16.57;43.41;100543.50;4973218;28;20105;-80
2023/06/03 07:37:09;;;;;;;4.35;0.80;;;;;;;16.63;42.88;100551.06;4973146;28;20047;-80
2023/06/03 07:39:36;;;;;;;2.47;0.82;;;;;;;16.72;42.92;100557.53;4973096;28;20046;-79
2023/06/03 07:42:12;;;;;;;1.65;0.70;;;;;;;16.79;42.43;100551.66;4955819;28;20054;-80
2023/06/03 07:44:44;;;;;;;0.98;0.73;;;;;;;16.86;41.69;100554.72;4973080;28;20054;-80
2023/06/03 07:47:12;;;;;;;2.92;0.80;;;;;;;16.95;42.29;100558.56;4955807;28;20139;-80
2023/06/03 07:49:39;;;;;;;2.08;0.90;;;;;;;17.03;41.60;100553.53;4955775;28;20503;-80
2023/06/03 07:52:07;;;;;;;2.53;0.90;;;;;;;17.08;41.24;100545.25;4972624;28;20042;-80
2023/06/03 07:54:34;;;;;;;1.17;1.00;;;;;;;17.14;41.23;100549.28;4972825;28;20491;-80
2023/06/03 07:57:01;;;;;;;4.18;0.80;;;;;;;17.20;40.94;100554.16;4955859;28;20432;-79
2023/06/03 07:59:28;;;;;;;1.35;1.08;;;;;;;17.27;41.15;100555.41;4955807;28;20050;-79
2023/06/03 08:01:58;;;;;;;1.33;0.68;;;;;;;17.32;40.43;100553.25;4955643;28;20058;-79
2023/06/03 08:04:28;;;;;;;1.45;0.82;;;;;;;17.40;41.13;100555.38;4972080;28;20105;-79
2023/06/03 08:07:02;;;;;;;1.85;0.70;;;;;;;17.48;40.73;100556.59;4955336;28;20059;-78
2023/06/03 08:09:34;;;;;;;1.27;0.75;;;;;;;17.56;40.09;100557.75;4972779;28;20459;-79
2023/06/03 08:12:04;;;;;;;3.40;0.80;;;;;;;17.65;40.64;100561.53;4972717;28;20090;-79
2023/06/03 08:14:34;;;;;;;1.65;0.77;;;;;;;17.73;40.40;100558.31;4955192;28;20055;-79
2023/06/03 08:17:35;;;;;;;6.00;0.80;;;;;;;17.78;40.26;100564.16;4972274;28;20054;-79
2023/06/03 08:20:08;;;;;;;0.73;0.60;;;;;;;17.93;40.81;100570.13;4972568;28;20127;-79
2023/06/03 08:22:44;;;;;;;1.70;0.80;;;;;;;18.02;40.99;100557.91;4972604;28;20053;-79
2023/06/03 08:25:11;;;;;;;0.82;0.75;;;;;;;18.13;40.39;100565.13;4952796;29;20059;-79
2023/06/03 08:27:37;;;;;;;4.43;0.90;;;;;;;18.21;40.53;100564.56;4953197;29;20503;-79
2023/06/03 08:30:04;;;;;;;3.33;1.00;;;;;;;18.30;40.28;100560.31;4953293;29;20144;-79
2023/06/03 08:32:35;;;;;;;2.70;0.80;;;;;;;18.38;39.40;100562.41;4953104;29;20401;-79
2023/06/03 08:35:02;;;;;;;3.35;0.93;;;;;;;18.47;39.96;100557.19;4968738;28;20055;-80
2023/06/03 08:37:30;;;;;;;3.28;0.80;;;;;;;18.56;39.55;100560.13;4971983;28;20138;-79
2023/06/03 08:39:57;;;;;;;4.82;0.98;;;;;;;18.65;39.43;100550.56;4972057;28;20058;-79
2023/06/03 08:42:30;;;;;;;1.90;0.70;;;;;;;18.70;38.86;100551.91;4971969;28;20055;-79
2023/06/03 08:45:03;;;;;;;1.10;0.80;;;;;;;18.80;39.22;100553.84;4971961;28;20137;-79
2023/06/03 08:48:00;;;;;;;8.23;0.82;;;;;;;18.88;39.40;100546.91;4972022;28;20065;-79
2023/06/03 08:50:28;;;;;;;1.95;0.90;;;;;;;19.01;39.39;100546.78;4972042;28;20050;-79
2023/06/03 08:52:56;;;;;;;1.80;0.90;;;;;;;19.11;39.24;100543.41;4971748;28;20043;-79
2023/06/03 08:55:23;;;;;;;4.18;0.90;;;;;;;19.19;38.35;100545.44;4971477;28;20579;-79
2023/06/03 08:58:07;;;;;;;2.35;0.70;;;;;;;19.23;37.36;100549.56;4971922;28;20061;-79
2023/06/03 09:00:34;;;;;;;3.08;0.70;;;;;;;19.33;37.96;100544.34;4971705;28;20615;-79
2023/06/03 09:03:03;;;;;;;1.23;0.98;;;;;;;19.37;38.13;100541.28;4970929;28;20059;-78
2023/06/03 09:05:41;;;;;;;0.68;0.50;;;;;;;19.42;37.56;100540.91;4971574;28;20153;-79
2023/06/03 09:08:08;;;;;;;0.85;0.60;;;;;;;19.49;37.46;100552.78;4971691;28;20059;-79
2023/06/03 09:10:35;;;;;;;1.85;0.77;;;;;;;19.56;37.30;100541.59;4971977;28;20085;-79
2023/06/03 09:13:02;;;;;;;1.35;0.63;;;;;;;19.64;37.45;100552.50;4971666;28;20068;-79
2023/06/03 09:15:29;;;;;;;1.23;0.95;;;;;;;19.71;37.81;100542.13;4971200;28;20137;-79
2023/06/03 09:21:09;;;;;;;2.33;0.70;;;;;;;19.89;37.02;100532.56;5002762;22;20056;-75
2023/06/03 09:23:39;;;;;;;3.23;0.90;;;;;;;19.99;36.78;100542.50;5030164;28;20058;-75
2023/06/03 09:26:06;;;;;;;2.60;0.63;;;;;;;20.07;36.70;100537.38;5028288;28;20306;-76
2023/06/03 09:28:37;;;;;;;0.88;0.65;;;;;;;20.17;36.23;100538.28;5029883;28;20041;-76
2023/06/03 09:31:05;;;;;;;1.42;0.68;;;;;;;20.25;36.10;100540.31;5030536;28;20502;-76
2023/06/03 09:33:32;;;;;;;1.67;0.75;;;;;;;20.34;35.89;100538.69;5030457;28;20418;-76
2023/06/03 09:36:06;;;;;;;3.33;0.73;;;;;;;20.39;35.28;100538.25;5029985;28;20089;-76
2023/06/03 09:39:05;;;;;;;1.17;0.85;;;;;;;20.48;36.22;100539.31;5030237;28;20060;-76
2023/06/03 09:41:31;;;;;;;1.02;0.57;;;;;;;20.59;36.23;100528.50;5028537;28;20050;-75
2023/06/03 09:44:01;;;;;;;10.77;1.00;;;;;;;20.66;35.81;100527.00;5030143;28;20467;-73
2023/06/03 09:46:30;;;;;;;1.10;0.60;;;;;;;20.73;35.31;100529.97;5030011;28;20363;-74
2023/06/03 09:49:13;;;;;;;1.17;0.68;;;;;;;20.77;36.21;100523.38;5010218;28;20042;-74
2023/06/03 09:51:50;;;;;;;0.88;0.60;;;;;;;20.89;35.00;100521.47;5010579;28;20411;-74
2023/06/03 09:54:18;;;;;;;5.03;1.00;;;;;;;20.97;34.53;100523.44;5010326;28;20506;-74
2023/06/03 09:56:45;;;;;;;3.13;0.60;;;;;;;21.01;34.42;100526.72;5024841;28;20095;-75
2023/06/03 09:59:23;;;;;;;5.38;0.73;;;;;;;21.03;34.17;100522.06;5030137;28;20053;-75
2023/06/03 10:01:53;;;;;;;2.25;0.73;;;;;;;21.11;34.42;100524.91;5030313;28;20065;-74
2023/06/03 10:04:23;;;;;;;1.23;0.75;;;;;;;21.17;35.26;100521.69;5030017;28;20053;-76
2023/06/03 10:07:10;;;;;;;1.55;0.70;;;;;;;21.24;35.48;100507.72;5010382;28;20057;-75
2023/06/03 10:09:38;;;;;;;1.23;0.75;;;;;;;21.39;34.87;100505.50;5010584;28;20054;-75
2023/06/03 10:12:07;;;;;;;1.60;0.88;;;;;;;21.49;34.81;100514.38;4992894;28;20062;-74
2023/06/03 10:14:46;;;;;;;4.85;1.30;;;;;;;21.57;34.58;100513.69;5012859;28;20065;-75
2023/06/03 10:17:14;;;;;;;1.60;0.85;;;;;;;21.70;34.08;100519.59;5032992;28;20049;-74
2023/06/03 10:19:43;;;;;;;8.65;2.03;;;;;;;21.80;34.43;100513.41;5032375;28;20042;-75
2023/06/03 10:22:16;;;;;;;4.00;1.10;;;;;;;21.89;33.98;100517.91;5032107;28;20602;-75
2023/06/03 10:24:44;;;;;;;;;;;;;;;21.98;35.75;100511.69;5034170;28;20403;-75
2023/06/03 10:27:13;;;;;;;1.25;0.57;;;;;;;22.15;34.32;100522.66;5033236;28;20016;-75
2023/06/03 10:29:40;;;;;;;1.35;0.73;;;;;;;22.29;34.58;100517.84;5032465;28;20049;-75
2023/06/03 10:32:09;;;;;;;1.00;0.70;;;;;;;22.43;33.79;100520.03;5033869;28;20137;-76
2023/06/03 10:34:44;;;;;;;1.00;0.65;;;;;;;22.57;34.02;100509.88;5031814;28;20403;-75
2023/06/03 10:37:14;;;;;;;0.93;0.68;;;;;;;22.76;33.12;100511.59;5020212;28;20046;-75
2023/06/03 10:39:42;;;;;;;3.90;0.75;;;;;;;22.93;33.82;100509.09;5031735;28;20057;-75
2023/06/03 10:42:11;;;;;;;1.15;0.70;;;;;;;23.11;33.51;100510.00;5031914;28;20076;-75
2023/06/03 10:44:38;;;;;;;4.57;0.70;;;;;;;23.32;33.76;100510.72;5031811;28;20049;-75
2023/06/03 10:47:16;;;;;;;1.58;0.70;;;;;;;23.52;32.96;100509.56;5031518;28;20498;-74
2023/06/03 10:49:50;;;;;;;1.15;0.70;;;;;;;23.79;32.20;100513.19;5033036;28;20087;-75
2023/06/03 10:52:49;;;;;;;2.63;0.70;;;;;;;24.00;31.99;100516.50;5033214;28;20095;-74
2023/06/03 10:55:18;;;;;;;9.57;0.73;;;;;;;24.24;31.40;100523.94;5032456;28;20119;-75
2023/06/03 10:57:47;;;;;;;1.92;0.70;;;;;;;24.49;32.12;100515.16;5031753;28;20127;-76
2023/06/03 11:01:03;;;;;;;1.05;0.68;;;;;;;24.77;33.32;100515.78;5032719;28;20127;-75
2023/06/03 11:03:31;;;;;;;1.58;0.65;;;;;;;25.18;31.34;100511.53;5019369;28;20339;-74
2023/06/03 11:06:28;;;;;;;0.70;0.50;;;;;;;25.37;31.43;100516.63;5032420;28;20045;-75
2023/06/03 11:08:58;;;;;;;0.93;0.80;;;;;;;25.54;29.04;100500.47;5030623;28;20081;-75
2023/06/03 11:11:48;;;;;;;2.88;0.50;;;;;;;25.53;29.77;100506.84;5032323;28;20049;-75
2023/06/03 11:14:27;;;;;;;1.98;0.60;;;;;;;25.58;29.15;100503.69;5032668;28;20549;-75
2023/06/03 11:16:56;;;;;;;1.80;0.82;;;;;;;25.75;30.78;100508.06;5031169;28;20140;-74
2023/06/03 11:19:54;;;;;;;0.88;0.50;;;;;;;25.97;31.50;100511.09;5031074;28;20569;-74
2023/06/03 11:22:42;;;;;;;0.90;0.50;;;;;;;26.37;30.88;100503.13;5032278;28;20487;-75
2023/06/03 11:25:25;;;;;;;2.28;0.70;;;;;;;26.80;30.47;100502.75;5031602;28;20056;-74
2023/06/03 11:27:53;;;;;;;0.60;0.60;;;;;;;27.24;29.75;100502.41;5032031;28;20058;-74
2023/06/03 11:30:20;;;;;;;2.67;0.63;;;;;;;27.60;29.22;100501.78;5032144;28;20045;-78
2023/06/03 11:33:09;;;;;;;1.63;0.75;;;;;;;27.86;29.15;100505.13;5032335;28;20057;-77
2023/06/03 11:35:36;;;;;;;0.80;0.63;;;;;;;28.09;27.55;100507.78;5032422;28;20057;-77
2023/06/03 11:38:03;;;;;;;3.03;0.63;;;;;;;28.14;26.97;100513.47;5032591;28;20053;-76
2023/06/03 11:40:44;;;;;;;1.40;0.70;;;;;;;28.04;27.44;100508.34;5032003;28;20115;-76
2023/06/03 11:43:11;;;;;;;1.13;0.60;;;;;;;28.08;26.78;100509.63;5032207;28;20410;-74
2023/06/03 11:45:38;;;;;;;2.97;0.68;;;;;;;28.06;26.48;100508.13;5031840;28;20045;-76
2023/06/03 11:48:10;;;;;;;1.05;0.80;;;;;;;27.93;25.88;100506.94;5030723;28;20128;-76